createdAt,value
2022-10-26T00:01:04.030Z,94843.59
2022-10-26T00:03:30.933Z,94835.72
2022-10-26T00:06:08.694Z,94790.22
2022-10-26T00:08:35.798Z,94824.94
2022-10-26T00:11:03.432Z,94846.38
2022-10-26T00:13:30.230Z,94815.16
2022-10-26T00:15:58.167Z,94803.66
2022-10-26T00:18:24.994Z,94811.09
2022-10-26T00:20:51.782Z,94824.25
2022-10-26T00:23:18.482Z,94828.63
2022-10-26T00:25:45.283Z,94804.44
2022-10-26T00:28:13.188Z,94821.22
2022-10-26T00:30:40.237Z,94825.94
2022-10-26T00:33:06.925Z,94793.50
2022-10-26T00:35:45.680Z,94764.41
2022-10-26T00:38:14.681Z,94752.63
2022-10-26T00:40:41.357Z,94775.50
2022-10-26T00:43:20.339Z,94744.28
2022-10-26T00:45:49.258Z,94763.06
2022-10-26T00:48:28.406Z,94717.47
2022-10-26T00:50:59.838Z,94700.91
2022-10-26T00:53:28.344Z,94763.03
2022-10-26T00:55:55.839Z,94767.91
2022-10-26T00:58:23.430Z,94750.78
2022-10-26T01:00:50.971Z,94775.97
2022-10-26T01:03:18.950Z,94765.97
2022-10-26T01:05:47.748Z,94775.75
2022-10-26T01:08:17.164Z,94743.78
2022-10-26T01:10:45.484Z,94761.34
2022-10-26T01:13:14.649Z,94812.38
2022-10-26T01:15:50.396Z,94822.88
2022-10-26T01:18:25.659Z,94777.94
2022-10-26T01:21:03.456Z,94800.75
2022-10-26T01:23:36.154Z,94781.00
2022-10-26T01:26:56.813Z,94797.53
2022-10-26T01:29:41.181Z,94831.03
2022-10-26T01:32:19.385Z,94814.69
2022-10-26T01:35:06.504Z,94825.63
2022-10-26T01:37:45.496Z,94836.91
2022-10-26T01:40:21.440Z,94798.69
2022-10-26T01:42:53.391Z,94816.06
2022-10-26T01:45:20.646Z,94799.97
2022-10-26T01:47:48.661Z,94773.53
2022-10-26T01:50:16.986Z,94744.81
2022-10-26T01:52:45.182Z,94760.25
2022-10-26T01:55:36.759Z,94764.19
2022-10-26T01:58:23.770Z,94772.34
2022-10-26T02:01:37.436Z,94779.88
2022-10-26T02:04:34.739Z,94784.22
2022-10-26T02:07:04.493Z,94776.97
2022-10-26T02:10:13.242Z,94764.44
2022-10-26T02:13:10.661Z,94764.41
2022-10-26T02:15:58.147Z,94747.53
2022-10-26T02:18:34.607Z,94787.19
2022-10-26T02:21:07.846Z,94766.84
2022-10-26T02:23:39.009Z,94767.44
2022-10-26T02:26:09.518Z,94777.09
2022-10-26T02:28:45.598Z,94822.03
2022-10-26T02:31:15.295Z,94766.63
2022-10-26T02:36:27.682Z,94800.66
2022-10-26T02:38:57.317Z,94811.84
2022-10-26T02:41:27.512Z,94816.94
2022-10-26T02:44:04.554Z,94796.50
2022-10-26T02:46:31.646Z,94833.03
2022-10-26T02:48:59.450Z,94799.84
2022-10-26T02:51:32.009Z,94831.16
2022-10-26T02:54:20.421Z,94817.38
2022-10-26T02:56:47.066Z,94768.31
2022-10-26T02:59:17.094Z,94748.72
2022-10-26T03:01:45.747Z,94801.56
2022-10-26T03:04:12.485Z,94792.53
2022-10-26T03:06:39.250Z,94780.13
2022-10-26T03:09:05.974Z,94798.13
2022-10-26T03:11:32.638Z,94776.88
2022-10-26T03:14:00.627Z,94752.22
2022-10-26T03:16:27.732Z,94794.13
2022-10-26T03:18:54.449Z,94741.56
2022-10-26T03:21:21.171Z,94716.94
2022-10-26T03:23:48.076Z,94750.88
2022-10-26T03:26:15.964Z,94783.44
2022-10-26T03:28:42.694Z,94756.47
2022-10-26T03:31:09.461Z,94772.41
2022-10-26T03:33:39.114Z,94744.63
2022-10-26T03:36:06.386Z,94737.63
2022-10-26T03:38:33.140Z,94737.84
2022-10-26T03:41:01.106Z,94748.66
2022-10-26T03:43:27.801Z,94758.41
2022-10-26T03:45:54.477Z,94749.19
2022-10-26T03:48:21.198Z,94764.66
2022-10-26T03:50:47.899Z,94757.94
2022-10-26T03:53:15.117Z,94742.75
2022-10-26T03:55:45.166Z,94761.91
2022-10-26T03:58:11.937Z,94780.31
2022-10-26T04:00:38.706Z,94774.63
2022-10-26T04:03:05.433Z,94796.75
2022-10-26T04:05:32.716Z,94804.56
2022-10-26T04:08:04.877Z,94810.41
2022-10-26T04:10:32.388Z,94768.19
2022-10-26T04:13:00.436Z,94784.44
2022-10-26T04:15:28.122Z,94815.88
2022-10-26T04:18:00.292Z,94803.16
2022-10-26T04:20:29.019Z,94792.59
2022-10-26T04:23:03.242Z,94780.63
2022-10-26T04:25:33.083Z,94805.38
2022-10-26T04:28:02.566Z,94831.09
2022-10-26T04:30:29.740Z,94800.28
2022-10-26T04:32:57.024Z,94775.03
2022-10-26T04:35:24.014Z,94796.28
2022-10-26T04:37:50.726Z,94818.88
2022-10-26T04:40:18.281Z,94783.47
2022-10-26T04:42:47.767Z,94825.25
2022-10-26T04:45:16.975Z,94793.69
2022-10-26T04:47:44.082Z,94815.50
2022-10-26T04:50:12.249Z,94819.78
2022-10-26T04:52:39.622Z,94812.75
2022-10-26T04:55:07.649Z,94822.50
2022-10-26T04:57:35.385Z,94836.91
2022-10-26T05:00:04.028Z,94846.28
2022-10-26T05:02:31.889Z,94863.88
2022-10-26T05:04:58.874Z,94894.72
2022-10-26T05:07:25.838Z,94852.66
2022-10-26T05:09:52.614Z,94897.81
2022-10-26T05:12:19.486Z,94890.91
2022-10-26T05:14:47.249Z,94900.91
2022-10-26T05:17:13.954Z,94834.38
2022-10-26T05:19:40.942Z,94872.75
2022-10-26T05:22:07.950Z,94904.09
2022-10-26T05:24:34.821Z,94924.13
2022-10-26T05:27:02.371Z,94936.19
2022-10-26T05:29:29.028Z,94941.97
2022-10-26T05:31:56.035Z,94949.81
2022-10-26T05:34:22.755Z,94894.44
2022-10-26T05:36:49.422Z,94947.78
2022-10-26T05:39:17.118Z,94931.88
2022-10-26T05:41:43.874Z,94899.06
2022-10-26T05:44:10.818Z,94964.97
2022-10-26T05:46:37.611Z,94928.34
2022-10-26T05:49:04.350Z,94954.47
2022-10-26T05:51:34.498Z,94935.34
2022-10-26T05:54:01.787Z,94916.78
2022-10-26T05:56:39.882Z,94920.63
2022-10-26T05:59:17.777Z,94979.03
2022-10-26T06:02:09.528Z,94911.91
2022-10-26T06:04:48.035Z,94976.66
2022-10-26T06:07:22.056Z,94988.75
2022-10-26T06:09:49.293Z,95003.78
2022-10-26T06:12:19.638Z,95007.00
2022-10-26T06:14:48.062Z,95005.19
2022-10-26T06:17:33.153Z,94988.38
2022-10-26T06:20:06.321Z,95011.84
2022-10-26T06:22:59.465Z,95000.56
2022-10-26T06:25:29.347Z,95002.25
2022-10-26T06:28:14.064Z,94994.81
2022-10-26T06:30:41.718Z,94999.13
2022-10-26T06:33:24.892Z,95011.13
2022-10-26T06:36:18.451Z,95002.00
2022-10-26T06:38:46.723Z,95039.03
2022-10-26T06:41:19.319Z,95047.41
2022-10-26T06:43:46.860Z,95029.00
2022-10-26T06:46:24.289Z,95042.16
2022-10-26T06:49:02.951Z,95042.94
2022-10-26T06:51:33.277Z,95014.25
2022-10-26T06:54:11.320Z,95030.97
2022-10-26T06:56:38.358Z,95014.00
2022-10-26T06:59:14.022Z,95025.41
2022-10-26T07:01:40.736Z,95007.66
2022-10-26T07:04:07.514Z,94996.41
2022-10-26T07:06:36.826Z,95009.63
2022-10-26T07:09:05.931Z,95054.72
2022-10-26T07:11:33.370Z,95057.31
2022-10-26T07:14:00.374Z,95012.81
2022-10-26T07:16:28.001Z,95009.50
2022-10-26T07:18:54.754Z,95012.94
2022-10-26T07:21:21.482Z,95033.06
2022-10-26T07:23:48.586Z,95064.94
2022-10-26T07:26:15.464Z,95054.84
2022-10-26T07:28:42.213Z,95052.50
2022-10-26T07:31:08.949Z,95077.91
2022-10-26T07:33:38.069Z,95003.34
2022-10-26T07:36:10.923Z,95045.03
2022-10-26T07:38:38.885Z,95053.22
2022-10-26T07:41:06.414Z,95078.63
2022-10-26T07:43:33.815Z,95074.41
2022-10-26T07:46:00.702Z,95041.16
2022-10-26T07:48:27.904Z,95050.53
2022-10-26T07:50:54.676Z,95083.22
2022-10-26T07:53:26.748Z,95038.22
2022-10-26T07:55:56.280Z,95036.03
2022-10-26T07:58:25.967Z,95003.84
2022-10-26T08:00:54.021Z,95047.41
2022-10-26T08:03:21.659Z,95035.09
2022-10-26T08:05:51.419Z,95009.09
2022-10-26T08:08:19.043Z,95016.91
2022-10-26T08:10:47.774Z,95028.47
2022-10-26T08:13:15.303Z,95026.19
2022-10-26T08:15:42.191Z,94984.09
2022-10-26T08:18:08.932Z,94997.66
2022-10-26T08:20:35.707Z,95007.16
2022-10-26T08:23:06.180Z,94987.63
2022-10-26T08:25:34.562Z,94984.47
2022-10-26T08:28:03.832Z,95000.00
2022-10-26T08:33:04.279Z,94997.38
2022-10-26T08:35:32.886Z,94994.66
2022-10-26T08:37:59.884Z,95010.34
2022-10-26T08:40:32.854Z,95012.34
2022-10-26T08:43:32.849Z,95029.59
2022-10-26T08:46:09.470Z,95018.06
2022-10-26T08:48:40.576Z,95011.44
2022-10-26T08:51:14.616Z,95002.72
2022-10-26T08:53:52.747Z,95037.44
2022-10-26T08:56:25.618Z,95043.75
2022-10-26T08:59:07.930Z,95028.09
2022-10-26T09:01:34.738Z,95019.94
2022-10-26T09:04:04.428Z,95034.56
2022-10-26T09:06:58.006Z,95048.72
2022-10-26T09:09:42.763Z,95045.16
2022-10-26T09:12:33.265Z,95050.88
2022-10-26T09:15:15.011Z,95063.88
2022-10-26T09:18:20.546Z,95036.19
2022-10-26T09:20:49.866Z,95072.53
2022-10-26T09:23:22.389Z,95051.34
2022-10-26T09:25:58.471Z,95078.84
2022-10-26T09:28:28.547Z,95019.94
2022-10-26T09:30:59.091Z,95067.47
2022-10-26T09:33:26.753Z,95053.31
2022-10-26T09:36:04.477Z,95044.16
2022-10-26T09:38:40.114Z,95050.47
2022-10-26T09:41:18.665Z,95081.19
2022-10-26T09:43:58.224Z,95066.31
2022-10-26T09:46:31.410Z,95069.09
2022-10-26T09:51:38.258Z,95052.88
2022-10-26T09:54:15.275Z,95068.03
2022-10-26T09:56:45.349Z,95042.69
2022-10-26T09:59:13.264Z,95059.94
2022-10-26T10:01:42.337Z,95070.31
2022-10-26T10:04:21.269Z,95076.25
2022-10-26T10:06:52.979Z,95089.94
2022-10-26T10:09:22.723Z,95088.91
2022-10-26T10:12:01.175Z,95061.63
2022-10-26T10:14:59.115Z,95106.56
2022-10-26T10:17:26.618Z,95140.63
2022-10-26T10:19:53.574Z,95128.25
2022-10-26T10:22:25.206Z,95114.63
2022-10-26T10:25:04.022Z,95154.88
2022-10-26T10:27:31.146Z,95174.81
2022-10-26T10:30:13.640Z,95171.72
2022-10-26T10:32:41.450Z,95175.00
2022-10-26T10:35:24.301Z,95199.72
2022-10-26T10:37:52.287Z,95145.06
2022-10-26T10:40:25.391Z,95133.06
2022-10-26T10:42:55.460Z,95132.13
2022-10-26T10:45:25.362Z,95144.19
2022-10-26T10:48:20.691Z,95124.75
2022-10-26T10:51:04.302Z,95165.03
2022-10-26T10:53:46.549Z,95162.91
2022-10-26T10:56:42.450Z,95152.28
2022-10-26T10:59:35.354Z,95154.53
2022-10-26T11:02:35.370Z,95162.22
2022-10-26T11:05:05.563Z,95141.81
2022-10-26T11:07:44.948Z,95141.16
2022-10-26T11:10:16.203Z,95155.94
2022-10-26T11:12:57.435Z,95157.41
2022-10-26T11:15:27.890Z,95144.59
2022-10-26T11:18:11.085Z,95155.50
2022-10-26T11:20:42.382Z,95151.34
2022-10-26T11:23:23.926Z,95115.81
2022-10-26T11:26:00.789Z,95149.34
2022-10-26T11:28:45.912Z,95140.50
2022-10-26T11:31:21.453Z,95123.34
2022-10-26T11:34:12.461Z,95158.47
2022-10-26T11:36:42.076Z,95149.56
2022-10-26T11:39:23.597Z,95163.28
2022-10-26T11:42:17.371Z,95178.88
2022-10-26T11:45:21.846Z,95174.38
2022-10-26T11:47:54.995Z,95156.53
2022-10-26T11:50:32.841Z,95139.75
2022-10-26T11:53:16.290Z,95147.75
2022-10-26T11:55:53.377Z,95172.41
2022-10-26T11:58:24.481Z,95160.59
2022-10-26T12:01:00.287Z,95164.09
2022-10-26T12:03:37.470Z,95179.88
2022-10-26T12:06:04.966Z,95185.72
2022-10-26T12:08:38.658Z,95184.81
2022-10-26T12:11:30.334Z,95173.13
2022-10-26T12:14:26.451Z,95201.19
2022-10-26T12:17:21.119Z,95196.97
2022-10-26T12:20:39.141Z,95184.63
2022-10-26T12:23:11.207Z,95181.53
2022-10-26T12:25:40.570Z,95181.13
2022-10-26T12:28:36.309Z,95170.09
2022-10-26T12:31:36.918Z,95209.28
2022-10-26T12:34:22.720Z,95195.97
2022-10-26T12:36:55.194Z,95179.69
2022-10-26T12:39:30.965Z,95193.84
2022-10-26T12:42:06.566Z,95198.47
2022-10-26T12:44:48.940Z,95209.59
2022-10-26T12:47:28.090Z,95163.63
2022-10-26T12:50:07.462Z,95190.97
2022-10-26T12:52:50.716Z,95204.47
2022-10-26T12:55:26.497Z,95197.53
2022-10-26T12:58:29.687Z,95209.59
2022-10-26T13:00:59.178Z,95185.34
2022-10-26T13:03:39.983Z,95172.91
2022-10-26T13:06:28.565Z,95199.81
2022-10-26T13:08:59.500Z,95213.59
2022-10-26T13:11:38.362Z,95196.63
2022-10-26T13:14:09.028Z,95214.53
2022-10-26T13:16:36.773Z,95212.00
2022-10-26T13:19:03.563Z,95215.38
2022-10-26T13:21:30.349Z,95200.81
2022-10-26T13:24:05.740Z,95189.03
2022-10-26T13:26:52.977Z,95195.69
2022-10-26T13:29:20.592Z,95193.94
2022-10-26T13:31:47.283Z,95211.19
2022-10-26T13:34:18.662Z,95215.06
2022-10-26T13:37:14.211Z,95214.88
2022-10-26T13:39:44.108Z,95211.84
2022-10-26T13:42:20.859Z,95204.06
2022-10-26T13:44:57.636Z,95198.28
2022-10-26T13:47:30.059Z,95188.13
2022-10-26T13:50:04.504Z,95205.13
2022-10-26T13:52:42.802Z,95198.00
2022-10-26T13:55:25.510Z,95202.53
2022-10-26T13:58:11.065Z,95197.13
2022-10-26T14:00:38.262Z,95209.59
2022-10-26T14:03:18.798Z,95209.34
2022-10-26T14:05:49.127Z,95215.84
2022-10-26T14:08:18.576Z,95214.19
2022-10-26T14:10:57.357Z,95221.63
2022-10-26T14:13:26.590Z,95232.00
2022-10-26T14:15:55.590Z,95236.22
2022-10-26T14:18:27.681Z,95235.19
2022-10-26T14:20:57.577Z,95240.16
2022-10-26T14:23:28.470Z,95224.97
2022-10-26T14:25:59.072Z,95185.69
2022-10-26T14:28:30.897Z,95197.75
2022-10-26T14:31:22.554Z,95251.78
2022-10-26T14:33:49.646Z,95252.81
2022-10-26T14:36:19.942Z,95236.50
2022-10-26T14:38:51.102Z,95234.41
2022-10-26T14:41:18.698Z,95250.59
2022-10-26T14:43:46.387Z,95240.03
2022-10-26T14:46:16.646Z,95230.63
2022-10-26T14:48:58.828Z,95248.22
2022-10-26T14:51:28.070Z,95243.81
2022-10-26T14:53:58.306Z,95256.28
2022-10-26T14:56:37.783Z,95241.94
2022-10-26T14:59:22.790Z,95258.44
2022-10-26T15:01:56.344Z,95252.97
2022-10-26T15:04:37.687Z,95222.88
2022-10-26T15:07:13.450Z,95238.31
2022-10-26T15:09:44.569Z,95256.25
2022-10-26T15:12:34.051Z,95254.75
2022-10-26T15:15:10.231Z,95259.59
2022-10-26T15:17:41.332Z,95227.25
2022-10-26T15:20:16.415Z,95265.72
2022-10-26T15:22:49.598Z,95260.19
2022-10-26T15:25:23.309Z,95266.50
2022-10-26T15:27:52.235Z,95274.13
2022-10-26T15:30:28.024Z,95277.28
2022-10-26T15:32:55.840Z,95274.00
2022-10-26T15:35:27.520Z,95263.22
2022-10-26T15:37:56.207Z,95280.81
2022-10-26T15:42:59.982Z,95287.84
2022-10-26T15:45:30.290Z,95289.19
2022-10-26T15:47:59.220Z,95277.88
2022-10-26T15:50:28.596Z,95288.34
2022-10-26T15:53:01.063Z,95292.94
2022-10-26T15:55:31.644Z,95295.41
2022-10-26T15:57:58.425Z,95302.75
2022-10-26T16:00:25.111Z,95280.75
2022-10-26T16:02:52.294Z,95290.25
2022-10-26T16:05:19.446Z,95292.56
2022-10-26T16:07:48.546Z,95281.88
2022-10-26T16:10:23.470Z,95297.06
2022-10-26T16:12:51.239Z,95283.66
2022-10-26T16:15:27.447Z,95273.91
2022-10-26T16:17:54.556Z,95295.34
2022-10-26T16:20:24.758Z,95313.59
2022-10-26T16:22:53.746Z,95325.06
2022-10-26T16:25:23.684Z,95301.19
2022-10-26T16:27:50.822Z,95304.47
2022-10-26T16:30:18.988Z,95315.91
2022-10-26T16:32:46.256Z,95311.44
2022-10-26T16:35:13.318Z,95316.56
2022-10-26T16:37:40.293Z,95320.88
2022-10-26T16:40:09.753Z,95323.03
2022-10-26T16:42:37.406Z,95346.47
2022-10-26T16:45:04.799Z,95347.97
2022-10-26T16:47:35.657Z,95332.72
2022-10-26T16:50:04.335Z,95339.31
2022-10-26T16:52:34.010Z,95334.66
2022-10-26T16:55:01.083Z,95337.81
2022-10-26T16:57:27.895Z,95348.25
2022-10-26T16:59:54.588Z,95360.84
2022-10-26T17:02:21.570Z,95371.25
2022-10-26T17:04:49.292Z,95351.69
2022-10-26T17:07:16.261Z,95358.34
2022-10-26T17:09:43.201Z,95347.56
2022-10-26T17:12:11.189Z,95358.25
2022-10-26T17:14:39.062Z,95360.75
2022-10-26T17:17:06.042Z,95360.63
2022-10-26T17:19:32.770Z,95377.53
2022-10-26T17:21:59.646Z,95373.44
2022-10-26T17:24:27.084Z,95400.69
2022-10-26T17:26:54.254Z,95393.38
2022-10-26T17:29:21.501Z,95394.44
2022-10-26T17:31:48.255Z,95385.06
2022-10-26T17:34:15.006Z,95395.97
2022-10-26T17:36:41.703Z,95366.44
2022-10-26T17:39:09.458Z,95375.97
2022-10-26T17:41:36.433Z,95393.13
2022-10-26T17:44:03.190Z,95385.84
2022-10-26T17:46:30.003Z,95395.50
2022-10-26T17:49:01.572Z,95382.09
2022-10-26T17:51:30.049Z,95411.63
2022-10-26T17:53:59.128Z,95404.53
2022-10-26T17:56:31.402Z,95419.81
2022-10-26T17:59:00.658Z,95422.06
2022-10-26T18:01:28.726Z,95430.78
2022-10-26T18:03:55.956Z,95425.81
2022-10-26T18:06:24.696Z,95429.22
2022-10-26T18:08:51.745Z,95408.44
2022-10-26T18:11:27.146Z,95441.13
2022-10-26T18:13:57.103Z,95435.81
2022-10-26T18:16:26.723Z,95428.06
2022-10-26T18:19:00.656Z,95452.94
2022-10-26T18:21:29.174Z,95456.47
2022-10-26T18:23:56.407Z,95447.88
2022-10-26T18:26:28.544Z,95446.44
2022-10-26T18:29:00.137Z,95467.00
2022-10-26T18:31:28.592Z,95461.56
2022-10-26T18:34:00.307Z,95445.63
2022-10-26T18:36:28.102Z,95464.84
2022-10-26T18:38:55.922Z,95448.41
2022-10-26T18:41:24.845Z,95418.53
2022-10-26T18:43:55.055Z,95459.28
2022-10-26T18:46:25.129Z,95491.38
2022-10-26T18:48:53.541Z,95498.31
2022-10-26T18:51:23.283Z,95473.84
2022-10-26T18:53:50.237Z,95491.88
2022-10-26T18:56:21.943Z,95476.97
2022-10-26T18:58:50.829Z,95490.69
2022-10-26T19:01:19.007Z,95483.16
2022-10-26T19:03:46.157Z,95449.91
2022-10-26T19:06:21.959Z,95469.56
2022-10-26T19:08:48.804Z,95486.69
2022-10-26T19:11:17.889Z,95466.13
2022-10-26T19:13:45.139Z,95461.03
2022-10-26T19:16:17.169Z,95486.47
2022-10-26T19:18:48.988Z,95500.69
2022-10-26T19:21:20.949Z,95520.88
2022-10-26T19:23:50.164Z,95489.88
2022-10-26T19:26:22.377Z,95524.38
2022-10-26T19:28:57.972Z,95518.00
2022-10-26T19:31:27.355Z,95525.94
2022-10-26T19:33:58.506Z,95485.00
2022-10-26T19:36:27.232Z,95508.41
2022-10-26T19:38:55.493Z,95510.59
2022-10-26T19:41:24.632Z,95499.81
2022-10-26T19:43:51.481Z,95523.06
2022-10-26T19:46:21.255Z,95523.72
2022-10-26T19:48:54.496Z,95518.56
2022-10-26T19:51:25.761Z,95524.94
2022-10-26T19:53:52.998Z,95514.69
2022-10-26T19:56:20.722Z,95498.22
2022-10-26T19:58:48.357Z,95513.97
2022-10-26T20:01:15.851Z,95509.06
2022-10-26T20:03:43.230Z,95547.84
2022-10-26T20:06:12.930Z,95523.66
2022-10-26T20:08:41.477Z,95550.34
2022-10-26T20:11:13.100Z,95551.66
2022-10-26T20:13:44.055Z,95558.81
2022-10-26T20:16:12.084Z,95550.19
2022-10-26T20:18:44.085Z,95569.53
2022-10-26T20:21:15.487Z,95545.34
2022-10-26T20:23:42.776Z,95550.06
2022-10-26T20:26:12.655Z,95536.19
2022-10-26T20:28:45.615Z,95497.06
2022-10-26T20:31:13.348Z,95536.09
2022-10-26T20:33:40.745Z,95531.88
2022-10-26T20:36:08.050Z,95559.06
2022-10-26T20:38:35.172Z,95522.78
2022-10-26T20:41:06.092Z,95539.66
2022-10-26T20:43:39.912Z,95503.88
2022-10-26T20:46:22.626Z,95542.91
2022-10-26T20:48:50.377Z,95526.06
2022-10-26T20:51:26.552Z,95513.56
2022-10-26T20:54:05.587Z,95516.81
2022-10-26T20:56:34.494Z,95496.91
2022-10-26T20:59:03.914Z,95530.38
2022-10-26T21:01:38.255Z,95520.75
2022-10-26T21:04:05.090Z,95532.28
2022-10-26T21:06:40.452Z,95520.06
2022-10-26T21:09:08.625Z,95530.47
2022-10-26T21:11:36.707Z,95536.69
2022-10-26T21:14:05.164Z,95533.38
2022-10-26T21:16:31.927Z,95528.81
2022-10-26T21:19:00.289Z,95552.00
2022-10-26T21:21:27.103Z,95555.00
2022-10-26T21:23:53.809Z,95527.31
2022-10-26T21:26:20.518Z,95538.13
2022-10-26T21:28:47.258Z,95519.94
2022-10-26T21:31:17.674Z,95548.19
2022-10-26T21:33:46.110Z,95532.31
2022-10-26T21:36:13.984Z,95528.47
2022-10-26T21:38:43.654Z,95526.53
2022-10-26T21:41:11.739Z,95543.72
2022-10-26T21:43:40.534Z,95557.88
2022-10-26T21:46:08.264Z,95569.50
2022-10-26T21:48:35.659Z,95558.53
2022-10-26T21:51:06.669Z,95585.16
2022-10-26T21:53:33.650Z,95588.94
2022-10-26T21:56:04.885Z,95583.34
2022-10-26T21:58:32.050Z,95578.69
2022-10-26T22:01:19.998Z,95588.06
2022-10-26T22:03:47.895Z,95587.91
2022-10-26T22:08:50.359Z,95578.22
2022-10-26T22:11:20.394Z,95596.06
2022-10-26T22:13:48.916Z,95603.91
2022-10-26T22:16:28.446Z,95613.78
2022-10-26T22:18:58.024Z,95619.06
2022-10-26T22:21:27.701Z,95608.69
2022-10-26T22:23:55.812Z,95586.81
2022-10-26T22:26:24.492Z,95604.03
2022-10-26T22:28:53.362Z,95607.50
2022-10-26T22:31:23.580Z,95596.31
2022-10-26T22:34:02.017Z,95599.34
2022-10-26T22:36:32.121Z,95602.25
2022-10-26T22:38:58.877Z,95583.56
2022-10-26T22:41:26.167Z,95603.41
2022-10-26T22:43:52.887Z,95611.66
2022-10-26T22:46:22.195Z,95600.91
2022-10-26T22:49:00.759Z,95612.81
2022-10-26T22:51:31.157Z,95608.50
2022-10-26T22:54:00.274Z,95592.47
2022-10-26T22:56:29.345Z,95601.38
2022-10-26T22:58:57.422Z,95605.13
2022-10-26T23:01:27.570Z,95568.38
2022-10-26T23:03:57.651Z,95598.38
2022-10-26T23:06:27.057Z,95604.44
2022-10-26T23:08:54.091Z,95588.28
2022-10-26T23:11:22.793Z,95589.44
2022-10-26T23:13:53.777Z,95580.69
2022-10-26T23:16:21.282Z,95589.19
2022-10-26T23:18:49.060Z,95579.78
2022-10-26T23:21:16.972Z,95598.78
2022-10-26T23:23:43.894Z,95577.50
2022-10-26T23:26:13.962Z,95588.50
2022-10-26T23:28:42.795Z,95605.38
2022-10-26T23:31:16.145Z,95604.13
2022-10-26T23:33:43.328Z,95616.81
2022-10-26T23:36:10.228Z,95612.91
2022-10-26T23:38:37.167Z,95592.19
2022-10-26T23:41:04.323Z,95600.25
2022-10-26T23:43:31.477Z,95610.09
2022-10-26T23:45:58.380Z,95575.38
2022-10-26T23:48:25.098Z,95579.38
2022-10-26T23:50:52.158Z,95600.09
2022-10-26T23:53:22.551Z,95591.38
2022-10-26T23:55:49.818Z,95592.53
2022-10-26T23:58:17.762Z,95588.19
